LFMD Airport Information

Runway Information
Runway 05 Length 2493 ft width 98 ft
Elevation 7 ft Threshold 328 ft Heading 47
Runway 23 Length 2493 ft Width 98 ft
Elevation 10 ft Threshold 98 ft Heading 227
Runway 17 Length 5282 ft width 148 ft
Elevation 13 ft Threshold 393 ft Heading 173
Runway 35 Length 5282 ft Width 148 ft
Elevation 13 ft Threshold 1148 ft Heading 353
Airport Frequencies
Type ATIS Name CANNES ATI Frequency 127.475 MHZ
Type GND Name CANNES GND Frequency 121.8 MHZ
Type TWR Name CANNES TWR Frequency 118.625 MHZ
Airport Navaids
Type VOR Name Cannes Frequency 111400 KHZ
Airport Weather Information & NOTAM
ADDS - METARS form results

(1846 UTC 27 May 2022)
Data provider http://aviationweather.gov/metar/data/
 
METAR text: LFMD 271830Z AUTO 00000KT CAVOK 27/14 Q1012 NOSIG
Conditions at: LFMD (CANNES/MANDELIEU, FR) observed 1830 UTC 27 May 2022
Temperature: 27.0°C (81°F)
Dewpoint: 14.0°C (57°F) [RH = 45%]
Pressure (altimeter): 29.88 inches Hg (1012.0 mb)
Winds: calm
Visibility: 6 or more miles (10+ km)
Ceiling: ceiling and visibility are OK
Clouds: unknown
Weather: no significant weather observed at this time

METAR text: LFMD 271800Z AUTO 17002KT CAVOK 27/15 Q1012 NOSIG
Conditions at: LFMD (CANNES/MANDELIEU, FR) observed 1800 UTC 27 May 2022
Temperature: 27.0°C (81°F)
Dewpoint: 15.0°C (59°F) [RH = 48%]
Pressure (altimeter): 29.88 inches Hg (1012.0 mb)
Winds: from the S (170 degrees) at 2 MPH (2 knots; 1.0 m/s)
Visibility: 6 or more miles (10+ km)
Ceiling: ceiling and visibility are OK
Clouds: unknown
Weather: no significant weather observed at this time

Forecast for: LFMD (CANNES/MANDELIEU, FR)
Text: TAF LFMD 271400Z 2715/2815 VRB05KT CAVOK
Forecast period: 1500 UTC 27 May 2022 to 1500 UTC 28 May 2022
Forecast type: FROM: standard forecast or significant change
Winds: variable direction winds at 6 MPH (5 knots; 2.6 m/s)
Visibility: 6 or more miles (10+ km)
Ceiling: unknown
Clouds: missing
Weather: NSW  (no significant weather)
Text: PROB40
Forecast period: 1500 to 1700 UTC 27 May 2022
Forecast type: TEMPORARY: The following changes expected for less than half the time period
Winds: from the SSE (160 degrees) at 12 MPH (10 knots; 5.1 m/s)
Visibility: missing
Ceiling: unknown
Clouds: missing
Weather: no significant weather forecast for this period
Text: TEMPO 2715/2717 16010KT
Forecast period: 1100 to 1500 UTC 28 May 2022
Forecast type: TEMPORARY: The following changes expected for less than half the time period
Winds: from the SSE (160 degrees) at 12 MPH (10 knots; 5.1 m/s)
Visibility: missing
Ceiling: unknown
Clouds: missing
Weather: no significant weather forecast for this period